Time,TemperatureF,DewpointF,PressureIn,WindDirection,WindDirectionDegrees,WindSpeedMPH,WindSpeedGustMPH,Humidity,HourlyPrecipIn,Conditions,Clouds,dailyrainin,SoftwareType,DateUTC
2013-04-01 00:02:00,72.0,72.0,29.87,North,0,0.0,0.0,99,0.00,,,0.00,,2013-03-31 14:02:00,
2013-04-01 00:11:00,72.0,72.0,29.87,North,0,0.0,0.0,99,0.00,,,0.00,,2013-03-31 14:11:00,
2013-04-01 00:22:00,71.0,71.0,29.87,North,0,0.0,0.0,99,0.00,,,0.00,,2013-03-31 14:22:00,
2013-04-01 00:32:00,71.0,71.0,29.87,North,1,0.0,1.0,99,0.00,,,0.00,,2013-03-31 14:32:00,
2013-04-01 00:42:00,71.0,71.0,29.87,North,1,0.0,1.0,99,0.00,,,0.00,,2013-03-31 14:42:00,
2013-04-01 00:52:00,72.0,72.0,29.86,NE,45,0.0,1.0,99,0.00,,,0.00,,2013-03-31 14:52:00,
2013-04-01 01:02:00,71.0,71.0,29.85,North,0,0.0,0.0,99,0.00,,,0.00,,2013-03-31 15:02:00,
2013-04-01 01:12:00,71.0,71.0,29.85,North,0,0.0,0.0,99,0.00,,,0.00,,2013-03-31 15:12:00,
2013-04-01 01:20:00,72.0,72.0,29.84,North,1,0.0,1.0,99,0.00,,,0.00,,2013-03-31 15:20:00,
2013-04-01 01:22:00,72.0,72.0,29.85,North,0,0.0,0.0,99,0.00,,,0.00,,2013-03-31 15:22:00,
2013-04-01 01:33:00,72.0,72.0,29.85,North,0,0.0,0.0,99,0.00,,,0.00,,2013-03-31 15:33:00,
2013-04-01 01:42:00,72.0,72.0,29.85,North,0,0.0,0.0,99,0.00,,,0.00,,2013-03-31 15:42:00,
2013-04-01 01:53:00,72.0,72.0,29.84,North,1,0.0,1.0,99,0.00,,,0.00,,2013-03-31 15:53:00,
2013-04-01 02:02:00,72.0,72.0,29.84,North,1,0.0,1.0,99,0.00,,,0.00,,2013-03-31 16:02:00,
2013-04-01 02:13:00,72.0,72.0,29.84,North,1,0.0,1.0,99,0.00,,,0.00,,2013-03-31 16:13:00,
2013-04-01 02:33:00,71.0,71.0,29.82,North,0,0.0,0.0,99,0.00,,,0.00,,2013-03-31 16:33:00,
2013-04-01 02:43:00,71.0,71.0,29.82,North,0,0.0,0.0,99,0.00,,,0.00,,2013-03-31 16:43:00,
2013-04-01 02:53:00,71.0,71.0,29.82,North,1,0.0,1.0,99,0.00,,,0.00,,2013-03-31 16:53:00,
2013-04-01 03:02:00,71.0,71.0,29.82,North,1,0.0,1.0,99,0.00,,,0.00,,2013-03-31 17:02:00,
2013-04-01 03:12:00,71.0,71.0,29.82,North,1,0.0,1.0,99,0.00,,,0.00,,2013-03-31 17:12:00,
2013-04-01 03:22:00,71.0,71.0,29.82,North,0,0.0,0.0,99,0.00,,,0.00,,2013-03-31 17:22:00,
2013-04-01 03:32:00,71.0,71.0,29.82,North,0,0.0,0.0,99,0.00,,,0.00,,2013-03-31 17:32:00,
2013-04-01 03:43:00,71.0,71.0,29.82,North,0,0.0,0.0,99,0.00,,,0.00,,2013-03-31 17:43:00,
2013-04-01 03:52:00,71.0,71.0,29.82,North,0,0.0,0.0,99,0.00,,,0.00,,2013-03-31 17:52:00,
2013-04-01 04:02:00,71.0,71.0,29.82,North,0,0.0,0.0,99,0.00,,,0.00,,2013-03-31 18:02:00,
2013-04-01 04:12:00,71.0,71.0,29.82,North,0,0.0,0.0,99,0.00,,,0.00,,2013-03-31 18:12:00,
2013-04-01 04:22:00,71.0,71.0,29.81,North,0,0.0,0.0,99,0.00,,,0.00,,2013-03-31 18:22:00,
2013-04-01 04:33:00,71.0,71.0,29.81,North,0,0.0,0.0,99,0.00,,,0.00,,2013-03-31 18:33:00,
2013-04-01 04:42:00,71.0,71.0,29.81,North,0,0.0,0.0,99,0.00,,,0.00,,2013-03-31 18:42:00,
2013-04-01 04:53:00,71.0,71.0,29.82,North,0,0.0,0.0,99,0.00,,,0.00,,2013-03-31 18:53:00,
2013-04-01 05:02:00,71.0,71.0,29.82,North,0,0.0,0.0,99,0.00,,,0.00,,2013-03-31 19:02:00,
2013-04-01 05:12:00,71.0,71.0,29.82,North,0,0.0,0.0,99,0.00,,,0.00,,2013-03-31 19:12:00,
2013-04-01 05:21:00,71.0,71.0,29.82,North,0,0.0,0.0,99,0.00,,,0.00,,2013-03-31 19:21:00,
2013-04-01 05:32:00,71.0,71.0,29.83,North,0,0.0,0.0,99,0.00,,,0.00,,2013-03-31 19:32:00,
2013-04-01 05:42:00,71.0,71.0,29.83,North,0,0.0,0.0,99,0.00,,,0.00,,2013-03-31 19:42:00,
2013-04-01 05:53:00,71.0,71.0,29.83,NW,314,0.0,1.0,99,0.00,,,0.00,,2013-03-31 19:53:00,
2013-04-01 06:02:00,71.0,71.0,29.83,NW,314,0.0,1.0,99,0.00,,,0.00,,2013-03-31 20:02:00,
2013-04-01 06:11:00,71.0,71.0,29.83,NW,314,0.0,1.0,99,0.00,,,0.00,,2013-03-31 20:11:00,
2013-04-01 06:22:00,71.0,71.0,29.83,NW,314,0.0,1.0,99,0.00,,,0.00,,2013-03-31 20:22:00,
2013-04-01 06:32:00,70.0,70.0,29.84,North,0,0.0,0.0,99,0.00,,,0.00,,2013-03-31 20:32:00,
2013-04-01 06:43:00,70.0,70.0,29.84,North,0,0.0,0.0,99,0.00,,,0.00,,2013-03-31 20:43:00,
2013-04-01 06:52:00,71.0,71.0,29.84,NNW,330,0.0,2.0,99,0.00,,,0.00,,2013-03-31 20:52:00,
2013-04-01 07:02:00,71.0,71.0,29.84,NW,314,0.0,2.0,99,0.00,,,0.00,,2013-03-31 21:02:00,
2013-04-01 07:12:00,71.0,71.0,29.84,NW,314,0.0,2.0,99,0.00,,,0.00,,2013-03-31 21:12:00,
2013-04-01 07:22:00,71.0,71.0,29.85,North,0,0.0,0.0,99,0.00,,,0.00,,2013-03-31 21:22:00,
2013-04-01 07:33:00,72.0,72.0,29.85,NW,314,0.0,1.0,99,0.00,,,0.00,,2013-03-31 21:33:00,
2013-04-01 07:43:00,72.0,72.0,29.85,NW,314,0.0,1.0,99,0.00,,,0.00,,2013-03-31 21:43:00,
2013-04-01 07:53:00,74.0,74.0,29.85,NW,313,0.0,2.0,99,0.00,,,0.00,,2013-03-31 21:53:00,
2013-04-01 08:02:00,74.0,74.0,29.85,NW,313,0.0,2.0,99,0.00,,,0.00,,2013-03-31 22:02:00,
2013-04-01 08:12:00,74.0,74.0,29.85,NW,313,0.0,2.0,99,0.00,,,0.00,,2013-03-31 22:12:00,
2013-04-01 08:23:00,83.0,83.0,29.85,NNW,336,0.0,2.0,99,0.05,,,0.05,,2013-03-31 22:23:00,
2013-04-01 08:33:00,83.0,83.0,29.85,NNW,336,0.0,2.0,99,0.05,,,0.05,,2013-03-31 22:33:00,
2013-04-01 08:43:00,83.0,83.0,29.85,NNW,336,0.0,2.0,99,0.05,,,0.05,,2013-03-31 22:43:00,
2013-04-01 08:53:00,87.0,87.0,29.86,NW,324,0.0,2.0,99,0.05,,,0.05,,2013-03-31 22:53:00,
2013-04-01 09:02:00,88.0,88.0,29.86,NW,323,0.0,2.0,99,0.05,,,0.05,,2013-03-31 23:02:00,
2013-04-01 09:12:00,88.0,88.0,29.86,NW,323,0.0,2.0,99,0.05,,,0.05,,2013-03-31 23:12:00,
2013-04-01 09:22:00,88.0,84.0,29.86,NW,319,0.0,2.0,89,0.00,,,0.05,,2013-03-31 23:22:00,
2013-04-01 09:31:00,89.0,87.0,29.87,NW,314,0.0,4.0,93,0.00,,,0.05,,2013-03-31 23:31:00,
2013-04-01 09:42:00,89.0,87.0,29.87,NW,314,0.0,4.0,93,0.00,,,0.05,,2013-03-31 23:42:00,
2013-04-01 09:53:00,89.0,87.0,29.87,NW,314,0.0,4.0,93,0.00,,,0.05,,2013-03-31 23:53:00,
2013-04-01 10:01:00,91.0,84.0,29.87,NW,314,1.0,3.0,79,0.00,,,0.05,,2013-04-01 00:01:00,
2013-04-01 10:12:00,91.0,84.0,29.87,NW,314,1.0,3.0,79,0.00,,,0.05,,2013-04-01 00:12:00,
2013-04-01 10:22:00,91.0,81.0,29.86,NW,317,0.0,2.0,73,0.00,,,0.05,,2013-04-01 00:22:00,
2013-04-01 10:32:00,91.0,81.0,29.86,NW,317,0.0,2.0,73,0.00,,,0.05,,2013-04-01 00:32:00,
2013-04-01 10:42:00,91.0,81.0,29.86,NW,317,0.0,2.0,73,0.00,,,0.05,,2013-04-01 00:42:00,
2013-04-01 10:50:00,93.0,80.0,29.85,South,178,0.0,6.0,67,0.00,,,0.05,,2013-04-01 00:50:00,
2013-04-01 10:52:00,91.0,82.0,29.86,SW,231,0.0,3.0,74,0.00,,,0.05,,2013-04-01 00:52:00,
2013-04-01 11:01:00,94.0,79.0,29.86,WNW,284,0.0,3.0,63,0.00,,,0.05,,2013-04-01 01:01:00,
2013-04-01 11:12:00,94.0,79.0,29.86,WNW,284,0.0,3.0,63,0.00,,,0.05,,2013-04-01 01:12:00,
2013-04-01 11:22:00,93.0,80.0,29.85,South,178,0.0,6.0,67,0.00,,,0.05,,2013-04-01 01:22:00,
2013-04-01 11:32:00,93.0,80.0,29.85,South,178,0.0,6.0,67,0.00,,,0.05,,2013-04-01 01:32:00,
2013-04-01 11:42:00,93.0,80.0,29.85,South,178,0.0,6.0,67,0.00,,,0.05,,2013-04-01 01:42:00,
2013-04-01 12:02:00,93.0,80.0,29.84,South,185,2.0,8.0,66,0.00,,,0.05,,2013-04-01 02:02:00,
2013-04-01 12:12:00,93.0,80.0,29.84,South,185,2.0,8.0,66,0.00,,,0.05,,2013-04-01 02:12:00,
2013-04-01 12:22:00,95.0,81.0,29.83,SSE,163,2.0,4.0,64,0.00,,,0.05,,2013-04-01 02:22:00,
2013-04-01 12:32:00,93.0,80.0,29.82,SSE,155,2.0,8.0,66,0.00,,,0.05,,2013-04-01 02:32:00,
2013-04-01 12:42:00,93.0,80.0,29.82,SSE,155,2.0,8.0,66,0.00,,,0.05,,2013-04-01 02:42:00,
2013-04-01 12:53:00,95.0,81.0,29.81,SSW,203,2.0,7.0,64,0.00,,,0.05,,2013-04-01 02:53:00,
2013-04-01 13:02:00,95.0,81.0,29.81,South,177,1.0,7.0,65,0.00,,,0.05,,2013-04-01 03:02:00,
2013-04-01 13:11:00,95.0,81.0,29.81,South,177,1.0,7.0,65,0.00,,,0.05,,2013-04-01 03:11:00,
2013-04-01 13:22:00,95.0,81.0,29.81,South,177,1.0,7.0,65,0.00,,,0.05,,2013-04-01 03:22:00,
2013-04-01 13:33:00,96.0,80.0,29.80,SSW,192,2.0,4.0,60,0.00,,,0.05,,2013-04-01 03:33:00,
2013-04-01 13:43:00,96.0,80.0,29.80,SSW,192,2.0,4.0,60,0.00,,,0.05,,2013-04-01 03:43:00,
2013-04-01 13:53:00,95.0,79.0,29.79,SSE,150,2.0,8.0,61,0.00,,,0.05,,2013-04-01 03:53:00,
2013-04-01 14:02:00,94.0,79.0,29.78,SE,125,2.0,8.0,63,0.00,,,0.05,,2013-04-01 04:02:00,
2013-04-01 14:12:00,94.0,79.0,29.78,SE,125,2.0,8.0,63,0.00,,,0.05,,2013-04-01 04:12:00,
2013-04-01 14:23:00,93.0,80.0,29.78,South,191,2.0,8.0,66,0.00,,,0.05,,2013-04-01 04:23:00,
2013-04-01 14:32:00,93.0,80.0,29.78,SSE,157,2.0,8.0,67,0.00,,,0.05,,2013-04-01 04:32:00,
2013-04-01 14:43:00,93.0,80.0,29.78,SSE,157,2.0,8.0,67,0.00,,,0.05,,2013-04-01 04:43:00,
2013-04-01 14:52:00,94.0,81.0,29.78,SSE,148,2.0,9.0,67,0.00,,,0.05,,2013-04-01 04:52:00,
2013-04-01 15:02:00,96.0,81.0,29.78,South,177,3.0,6.0,62,0.00,,,0.05,,2013-04-01 05:02:00,
2013-04-01 15:12:00,96.0,81.0,29.78,South,177,3.0,6.0,62,0.00,,,0.05,,2013-04-01 05:12:00,
2013-04-01 15:22:00,95.0,81.0,29.77,SSW,213,2.0,8.0,65,0.00,,,0.05,,2013-04-01 05:22:00,
2013-04-01 15:32:00,95.0,81.0,29.77,SSW,213,2.0,8.0,65,0.00,,,0.05,,2013-04-01 05:32:00,
2013-04-01 15:42:00,95.0,81.0,29.77,SSW,213,2.0,8.0,65,0.00,,,0.05,,2013-04-01 05:42:00,
2013-04-01 15:52:00,93.0,81.0,29.78,SSW,197,2.0,9.0,69,0.00,,,0.05,,2013-04-01 05:52:00,
2013-04-01 16:02:00,92.0,81.0,29.77,South,171,2.0,8.0,71,0.00,,,0.05,,2013-04-01 06:02:00,
2013-04-01 16:12:00,92.0,81.0,29.77,South,171,2.0,8.0,71,0.00,,,0.05,,2013-04-01 06:12:00,
2013-04-01 16:22:00,93.0,81.0,29.78,SSW,197,2.0,8.0,69,0.00,,,0.05,,2013-04-01 06:22:00,
2013-04-01 16:33:00,93.0,81.0,29.78,SSW,197,2.0,8.0,69,0.00,,,0.05,,2013-04-01 06:33:00,
2013-04-01 16:42:00,93.0,81.0,29.78,SSW,197,2.0,8.0,69,0.00,,,0.05,,2013-04-01 06:42:00,
2013-04-01 16:52:00,92.0,79.0,29.78,SSW,196,1.0,8.0,67,0.00,,,0.05,,2013-04-01 06:52:00,
2013-04-01 17:02:00,88.0,79.0,29.79,South,172,1.0,7.0,74,0.00,,,0.05,,2013-04-01 07:02:00,
2013-04-01 17:12:00,88.0,79.0,29.79,South,172,1.0,7.0,74,0.00,,,0.05,,2013-04-01 07:12:00,
2013-04-01 17:22:00,85.0,80.0,29.79,SW,226,2.0,6.0,85,0.00,,,0.05,,2013-04-01 07:22:00,
2013-04-01 17:32:00,85.0,80.0,29.79,SW,226,2.0,6.0,85,0.00,,,0.05,,2013-04-01 07:32:00,
2013-04-01 17:42:00,85.0,80.0,29.79,SW,226,2.0,6.0,85,0.00,,,0.05,,2013-04-01 07:42:00,
2013-04-01 17:52:00,84.0,81.0,29.80,SW,227,0.0,8.0,91,0.00,,,0.05,,2013-04-01 07:52:00,
2013-04-01 18:02:00,84.0,81.0,29.80,SW,227,0.0,8.0,91,0.00,,,0.05,,2013-04-01 08:02:00,
2013-04-01 18:12:00,84.0,81.0,29.80,SW,227,0.0,8.0,91,0.00,,,0.05,,2013-04-01 08:12:00,
2013-04-01 18:21:00,82.0,81.0,29.81,SW,234,0.0,4.0,97,0.00,,,0.05,,2013-04-01 08:21:00,
2013-04-01 18:32:00,82.0,81.0,29.81,NW,307,0.0,2.0,98,0.00,,,0.05,,2013-04-01 08:32:00,
2013-04-01 18:43:00,82.0,81.0,29.81,NW,307,0.0,2.0,98,0.00,,,0.05,,2013-04-01 08:43:00,
2013-04-01 18:53:00,82.0,82.0,29.82,WNW,288,0.0,3.0,99,0.00,,,0.05,,2013-04-01 08:53:00,
2013-04-01 19:02:00,81.0,81.0,29.82,NW,311,0.0,2.0,99,0.00,,,0.05,,2013-04-01 09:02:00,
2013-04-01 19:12:00,81.0,81.0,29.82,NW,311,0.0,2.0,99,0.00,,,0.05,,2013-04-01 09:12:00,
2013-04-01 19:22:00,81.0,81.0,29.83,NW,314,0.0,1.0,99,0.00,,,0.05,,2013-04-01 09:22:00,
2013-04-01 19:32:00,81.0,81.0,29.83,NW,319,0.0,1.0,99,0.00,,,0.05,,2013-04-01 09:32:00,
2013-04-01 19:42:00,81.0,81.0,29.83,NW,319,0.0,1.0,99,0.00,,,0.05,,2013-04-01 09:42:00,
2013-04-01 19:53:00,81.0,81.0,29.83,NW,319,0.0,1.0,99,0.00,,,0.05,,2013-04-01 09:53:00,
2013-04-01 20:02:00,81.0,81.0,29.84,NW,314,0.0,2.0,99,0.00,,,0.05,,2013-04-01 10:02:00,
2013-04-01 20:12:00,81.0,81.0,29.84,NW,314,0.0,2.0,99,0.00,,,0.05,,2013-04-01 10:12:00,
2013-04-01 20:22:00,80.0,80.0,29.84,NW,314,0.0,1.0,99,0.00,,,0.05,,2013-04-01 10:22:00,
2013-04-01 20:33:00,80.0,80.0,29.84,NW,314,0.0,1.0,99,0.00,,,0.05,,2013-04-01 10:33:00,
2013-04-01 20:42:00,80.0,80.0,29.84,NW,314,0.0,1.0,99,0.00,,,0.05,,2013-04-01 10:42:00,
2013-04-01 20:52:00,80.0,80.0,29.85,NW,314,0.0,2.0,99,0.00,,,0.05,,2013-04-01 10:52:00,
2013-04-01 21:02:00,80.0,80.0,29.86,NW,314,0.0,1.0,99,0.00,,,0.05,,2013-04-01 11:02:00,
2013-04-01 21:12:00,80.0,80.0,29.86,NW,314,0.0,1.0,99,0.00,,,0.05,,2013-04-01 11:12:00,
2013-04-01 21:22:00,80.0,80.0,29.86,NW,314,0.0,1.0,99,0.00,,,0.05,,2013-04-01 11:22:00,
2013-04-01 21:32:00,80.0,80.0,29.86,NW,314,0.0,4.0,99,0.00,,,0.05,,2013-04-01 11:32:00,
2013-04-01 21:42:00,80.0,80.0,29.86,NW,314,0.0,4.0,99,0.00,,,0.05,,2013-04-01 11:42:00,
2013-04-01 21:50:00,79.0,79.0,29.87,NW,314,0.0,1.0,99,0.00,,,0.05,,2013-04-01 11:50:00,
2013-04-01 21:53:00,80.0,80.0,29.86,NNW,327,0.0,2.0,99,0.00,,,0.05,,2013-04-01 11:53:00,
2013-04-01 22:02:00,80.0,80.0,29.86,NNW,327,0.0,2.0,99,0.00,,,0.05,,2013-04-01 12:02:00,
2013-04-01 22:11:00,80.0,80.0,29.86,NNW,327,0.0,2.0,99,0.00,,,0.05,,2013-04-01 12:11:00,
2013-04-01 22:22:00,79.0,79.0,29.87,NW,314,0.0,1.0,99,0.00,,,0.05,,2013-04-01 12:22:00,
2013-04-01 22:32:00,79.0,79.0,29.87,NW,314,0.0,1.0,99,0.00,,,0.05,,2013-04-01 12:32:00,
2013-04-01 22:42:00,79.0,79.0,29.87,NW,314,0.0,1.0,99,0.00,,,0.05,,2013-04-01 12:42:00,
2013-04-01 23:22:00,76.0,76.0,29.86,North,0,0.0,0.0,99,0.00,,,0.05,,2013-04-01 13:22:00,
2013-04-01 23:33:00,76.0,76.0,29.86,North,0,0.0,0.0,99,0.00,,,0.05,,2013-04-01 13:33:00,
2013-04-01 23:43:00,76.0,76.0,29.86,North,0,0.0,0.0,99,0.00,,,0.05,,2013-04-01 13:43:00,
2013-04-01 23:52:00,76.0,76.0,29.87,North,0,0.0,0.0,99,0.00,,,0.05,,2013-04-01 13:52:00,